createdAt,value
2024-02-26T00:02:09.344Z,4.10
2024-02-26T00:04:36.271Z,4.40
2024-02-26T00:07:03.353Z,3.60
2024-02-26T00:09:31.384Z,4.10
2024-02-26T00:11:59.129Z,3.83
2024-02-26T00:14:28.448Z,3.97
2024-02-26T00:16:55.217Z,3.90
2024-02-26T00:19:22.165Z,4.10
2024-02-26T00:21:49.497Z,3.50
2024-02-26T00:24:16.355Z,3.67
2024-02-26T00:26:43.195Z,3.60
2024-02-26T00:29:10.562Z,3.73
2024-02-26T00:31:39.142Z,3.27
2024-02-26T00:34:06.391Z,3.60
2024-02-26T00:36:33.277Z,4.20
2024-02-26T00:39:00.124Z,3.63
2024-02-26T00:41:26.948Z,3.63
2024-02-26T00:43:53.757Z,4.60
2024-02-26T00:46:20.537Z,5.30
2024-02-26T00:48:47.615Z,5.40
2024-02-26T00:51:14.821Z,5.20
2024-02-26T00:53:41.758Z,5.23
2024-02-26T00:56:08.565Z,5.13
2024-02-26T00:58:35.350Z,4.50
2024-02-26T01:01:02.304Z,4.73
2024-02-26T01:03:30.102Z,4.20
2024-02-26T01:05:59.034Z,4.80
2024-02-26T01:08:26.475Z,3.60
2024-02-26T01:10:53.299Z,5.13
2024-02-26T01:13:20.625Z,4.03
2024-02-26T01:15:47.512Z,4.10
2024-02-26T01:18:14.529Z,4.37
2024-02-26T01:20:41.581Z,3.30
2024-02-26T01:23:08.626Z,4.27
2024-02-26T01:25:35.464Z,3.40
2024-02-26T01:28:02.296Z,4.37
2024-02-26T01:30:29.175Z,4.47
2024-02-26T01:32:56.239Z,4.13
2024-02-26T01:35:23.722Z,3.70
2024-02-26T01:37:50.561Z,3.73
2024-02-26T01:40:21.327Z,3.47
2024-02-26T01:42:49.436Z,4.07
2024-02-26T01:45:23.298Z,4.70
2024-02-26T01:47:52.372Z,3.77
2024-02-26T01:50:20.516Z,3.80
2024-02-26T01:52:48.924Z,3.90
2024-02-26T01:55:16.614Z,3.80
2024-02-26T01:57:46.305Z,3.90
2024-02-26T02:00:15.568Z,4.43
2024-02-26T02:02:43.181Z,4.00
2024-02-26T02:05:11.089Z,3.87
2024-02-26T02:07:37.945Z,4.47
2024-02-26T02:10:06.150Z,4.03
2024-02-26T02:12:35.252Z,4.73
2024-02-26T02:15:03.699Z,3.93
2024-02-26T02:17:30.817Z,3.80
2024-02-26T02:19:57.716Z,4.20
2024-02-26T02:22:24.515Z,4.30
2024-02-26T02:24:53.487Z,3.80
2024-02-26T02:27:21.347Z,4.13
2024-02-26T02:29:49.319Z,4.20
2024-02-26T02:32:18.225Z,4.57
2024-02-26T02:34:45.802Z,4.53
2024-02-26T02:37:12.652Z,3.80
2024-02-26T02:39:39.523Z,4.77
2024-02-26T02:42:06.897Z,4.43
2024-02-26T02:44:33.691Z,3.67
2024-02-26T02:47:00.619Z,4.27
2024-02-26T02:49:27.598Z,4.03
2024-02-26T02:51:58.694Z,3.30
2024-02-26T02:54:25.690Z,3.40
2024-02-26T02:56:52.876Z,3.37
2024-02-26T02:59:19.751Z,3.80
2024-02-26T03:01:46.861Z,4.00
2024-02-26T03:04:13.906Z,3.00
2024-02-26T03:06:40.785Z,3.47
2024-02-26T03:09:07.751Z,3.70
2024-02-26T03:11:34.564Z,3.27
2024-02-26T03:14:01.442Z,3.73
2024-02-26T03:16:28.210Z,3.40
2024-02-26T03:18:55.099Z,3.70
2024-02-26T03:21:22.431Z,3.87
2024-02-26T03:23:49.276Z,3.67
2024-02-26T03:26:16.196Z,3.33
2024-02-26T03:28:43.310Z,3.87
2024-02-26T03:31:11.707Z,3.70
2024-02-26T03:33:38.757Z,3.90
2024-02-26T03:36:06.441Z,3.30
2024-02-26T03:38:33.371Z,3.93
2024-02-26T03:41:00.211Z,3.50
2024-02-26T03:43:30.104Z,3.10
2024-02-26T03:45:56.941Z,3.30
2024-02-26T03:48:23.945Z,3.63
2024-02-26T03:50:51.061Z,3.10
2024-02-26T03:53:17.960Z,2.83
2024-02-26T03:55:44.790Z,3.73
2024-02-26T03:58:13.765Z,3.70
2024-02-26T04:00:40.665Z,5.20
2024-02-26T04:03:07.513Z,4.03
2024-02-26T04:05:34.365Z,3.50
2024-02-26T04:08:01.132Z,3.77
2024-02-26T04:10:28.023Z,2.93
2024-02-26T04:12:54.809Z,3.53
2024-02-26T04:15:21.785Z,3.60
2024-02-26T04:17:48.616Z,3.67
2024-02-26T04:20:16.952Z,3.30
2024-02-26T04:22:43.868Z,3.50
2024-02-26T04:25:11.028Z,3.13
2024-02-26T04:27:37.915Z,3.33
2024-02-26T04:30:06.687Z,4.10
2024-02-26T04:32:33.515Z,4.27
2024-02-26T04:35:00.396Z,3.60
2024-02-26T04:37:32.070Z,3.93
2024-02-26T04:40:00.675Z,4.20
2024-02-26T04:42:28.419Z,3.40
2024-02-26T04:44:56.582Z,3.20
2024-02-26T04:47:23.678Z,3.40
2024-02-26T04:49:51.474Z,3.80
2024-02-26T04:52:19.682Z,4.50
2024-02-26T04:54:46.602Z,3.77
2024-02-26T04:57:13.855Z,3.60
2024-02-26T04:59:42.143Z,3.70
2024-02-26T05:02:09.252Z,4.33
2024-02-26T05:04:36.172Z,4.23
2024-02-26T05:07:03.162Z,4.07
2024-02-26T05:09:30.200Z,3.87
2024-02-26T05:11:56.992Z,3.63
2024-02-26T05:14:23.835Z,5.13
2024-02-26T05:16:50.612Z,3.57
2024-02-26T05:19:17.931Z,4.23
2024-02-26T05:21:45.359Z,3.40
2024-02-26T05:24:12.651Z,3.83
2024-02-26T05:26:39.640Z,3.70
2024-02-26T05:29:06.810Z,3.97
2024-02-26T05:31:33.585Z,4.20
2024-02-26T05:34:00.634Z,4.50
2024-02-26T05:36:29.759Z,4.30
2024-02-26T05:38:56.782Z,3.20
2024-02-26T05:41:27.574Z,4.27
2024-02-26T05:43:54.974Z,4.40
2024-02-26T05:46:22.815Z,4.07
2024-02-26T05:48:52.000Z,4.30
2024-02-26T05:51:19.476Z,3.90
2024-02-26T05:53:47.949Z,3.97
2024-02-26T05:56:14.981Z,3.90
2024-02-26T05:58:41.797Z,3.63
2024-02-26T06:01:08.669Z,3.57
2024-02-26T06:03:35.714Z,3.93
2024-02-26T06:06:03.257Z,3.80
2024-02-26T06:08:30.260Z,4.27
2024-02-26T06:10:57.215Z,4.23
2024-02-26T06:13:23.999Z,4.47
2024-02-26T06:15:50.989Z,4.80
2024-02-26T06:18:17.923Z,4.43
2024-02-26T06:20:44.975Z,4.20
2024-02-26T06:23:12.079Z,4.63
2024-02-26T06:25:38.973Z,4.00
2024-02-26T06:28:06.189Z,5.13
2024-02-26T06:30:33.066Z,5.37
2024-02-26T06:33:00.066Z,4.57
2024-02-26T06:35:27.846Z,6.30
2024-02-26T06:37:54.650Z,6.90
2024-02-26T06:40:21.450Z,9.30
2024-02-26T06:42:49.818Z,11.40
2024-02-26T06:45:17.142Z,9.07
2024-02-26T06:47:44.201Z,9.17
2024-02-26T06:50:13.142Z,7.93
2024-02-26T06:52:40.034Z,7.80
2024-02-26T06:55:09.398Z,7.40
2024-02-26T06:57:36.231Z,7.67
2024-02-26T07:00:05.020Z,7.23
2024-02-26T07:02:32.574Z,6.60
2024-02-26T07:04:59.491Z,7.70
2024-02-26T07:07:26.937Z,7.40
2024-02-26T07:09:53.914Z,7.67
2024-02-26T07:12:22.518Z,9.60
2024-02-26T07:14:50.725Z,10.10
2024-02-26T07:17:17.784Z,10.50
2024-02-26T07:19:44.649Z,9.30
2024-02-26T07:22:11.551Z,13.33
2024-02-26T07:24:38.399Z,10.90
2024-02-26T07:27:05.384Z,11.57
2024-02-26T07:29:32.495Z,8.20
2024-02-26T07:31:59.389Z,8.50
2024-02-26T07:34:30.330Z,8.13
2024-02-26T07:36:57.887Z,8.50
2024-02-26T07:39:24.839Z,9.13
2024-02-26T07:41:54.326Z,9.17
2024-02-26T07:44:21.605Z,9.87
2024-02-26T07:46:48.498Z,11.03
2024-02-26T07:49:15.680Z,10.87
2024-02-26T07:51:43.305Z,11.07
2024-02-26T07:54:10.242Z,11.07
2024-02-26T07:56:37.031Z,10.53
2024-02-26T07:59:03.949Z,8.70
2024-02-26T08:01:30.908Z,9.00
2024-02-26T08:03:57.926Z,10.00
2024-02-26T08:06:25.915Z,10.40
2024-02-26T08:08:53.544Z,8.57
2024-02-26T08:11:21.909Z,9.10
2024-02-26T08:13:48.813Z,9.17
2024-02-26T08:16:16.143Z,10.10
2024-02-26T08:18:43.161Z,8.63
2024-02-26T08:21:10.351Z,9.77
2024-02-26T08:23:37.484Z,10.20
2024-02-26T08:26:08.272Z,10.47
2024-02-26T08:28:35.386Z,12.37
2024-02-26T08:31:02.523Z,10.90
2024-02-26T08:33:29.917Z,11.10
2024-02-26T08:35:57.282Z,11.03
2024-02-26T08:38:24.296Z,10.40
2024-02-26T08:40:51.243Z,11.00
2024-02-26T08:43:18.660Z,11.60
2024-02-26T08:45:45.597Z,12.47
2024-02-26T08:48:13.017Z,12.20
2024-02-26T08:50:40.340Z,13.50
2024-02-26T08:53:08.449Z,13.43
2024-02-26T08:55:35.377Z,15.37
2024-02-26T08:58:02.339Z,14.90
2024-02-26T09:00:29.471Z,13.60
2024-02-26T09:02:56.529Z,13.10
2024-02-26T09:05:23.460Z,12.53
2024-02-26T09:07:53.656Z,12.33
2024-02-26T09:10:20.722Z,13.37
2024-02-26T09:12:47.683Z,12.30
2024-02-26T09:15:14.783Z,12.60
2024-02-26T09:17:41.781Z,12.90
2024-02-26T09:20:10.655Z,13.10
2024-02-26T09:22:39.155Z,13.67
2024-02-26T09:25:07.623Z,15.97
2024-02-26T09:27:34.689Z,15.00
2024-02-26T09:30:01.739Z,17.90
2024-02-26T09:32:28.752Z,17.20
2024-02-26T09:34:55.650Z,13.10
2024-02-26T09:37:22.970Z,12.57
2024-02-26T09:39:50.192Z,12.67
2024-02-26T09:42:20.005Z,11.23
2024-02-26T09:44:49.027Z,11.77
2024-02-26T09:47:18.396Z,11.17
2024-02-26T09:49:46.505Z,12.80
2024-02-26T09:52:15.052Z,11.10
2024-02-26T09:54:43.656Z,10.63
2024-02-26T09:57:17.096Z,9.57
2024-02-26T09:59:45.268Z,10.50
2024-02-26T10:02:16.287Z,10.43
2024-02-26T10:04:47.973Z,12.00
2024-02-26T10:07:18.466Z,11.07
2024-02-26T10:09:46.106Z,11.97
2024-02-26T10:12:13.537Z,11.90
2024-02-26T10:14:40.666Z,11.00
2024-02-26T10:17:11.618Z,9.03
2024-02-26T10:19:39.608Z,9.40
2024-02-26T10:22:07.354Z,8.83
2024-02-26T10:24:36.193Z,9.23
2024-02-26T10:27:04.005Z,9.60
2024-02-26T10:29:31.452Z,7.77
2024-02-26T10:31:58.542Z,8.97
2024-02-26T10:34:26.085Z,9.37
2024-02-26T10:36:54.592Z,7.20
2024-02-26T10:39:22.943Z,7.07
2024-02-26T10:41:51.340Z,7.47
2024-02-26T10:44:19.557Z,8.50
2024-02-26T10:46:50.931Z,8.87
2024-02-26T10:49:20.226Z,8.30
2024-02-26T10:51:56.431Z,8.17
2024-02-26T10:54:27.299Z,6.97
2024-02-26T10:56:57.060Z,7.70
2024-02-26T10:59:24.485Z,7.90
2024-02-26T11:01:52.223Z,7.57
2024-02-26T11:04:20.053Z,7.90
2024-02-26T11:06:48.923Z,6.90
2024-02-26T11:09:17.794Z,6.97
2024-02-26T11:11:46.047Z,6.43
2024-02-26T11:14:15.277Z,6.20
2024-02-26T11:16:44.091Z,7.20
2024-02-26T11:19:13.573Z,6.90
2024-02-26T11:21:44.989Z,6.53
2024-02-26T11:24:14.785Z,6.63
2024-02-26T11:27:00.709Z,5.80
2024-02-26T11:29:43.886Z,7.23
2024-02-26T11:32:11.143Z,5.90
2024-02-26T11:34:39.972Z,5.60
2024-02-26T11:37:15.539Z,6.10
2024-02-26T11:39:43.531Z,5.00
2024-02-26T11:42:10.730Z,6.57
2024-02-26T11:44:37.806Z,5.63
2024-02-26T11:47:15.087Z,6.23
2024-02-26T11:49:42.349Z,5.57
2024-02-26T11:52:10.651Z,6.97
2024-02-26T11:54:54.808Z,6.30
2024-02-26T11:57:33.999Z,6.53
2024-02-26T12:00:24.055Z,6.93
2024-02-26T12:03:03.451Z,5.73
2024-02-26T12:05:34.610Z,5.13
2024-02-26T12:08:09.245Z,5.40
2024-02-26T12:10:41.261Z,5.27
2024-02-26T12:13:20.016Z,5.00
2024-02-26T12:16:01.083Z,4.70
2024-02-26T12:18:31.684Z,4.67
2024-02-26T12:21:05.878Z,5.40
2024-02-26T12:23:33.389Z,4.60
2024-02-26T12:26:01.261Z,4.27
2024-02-26T12:28:32.205Z,4.60
2024-02-26T12:31:01.036Z,5.90
2024-02-26T12:33:29.679Z,5.30
2024-02-26T12:35:57.435Z,4.87
2024-02-26T12:38:25.351Z,4.90
2024-02-26T12:40:52.279Z,5.23
2024-02-26T12:43:19.185Z,4.57
2024-02-26T12:45:48.340Z,4.53
2024-02-26T12:48:15.583Z,4.43
2024-02-26T12:50:48.326Z,4.60
2024-02-26T12:53:15.408Z,4.50
2024-02-26T12:55:43.413Z,4.40
2024-02-26T12:58:10.564Z,4.00
2024-02-26T13:00:37.984Z,4.07
2024-02-26T13:03:06.004Z,3.80
2024-02-26T13:05:33.784Z,3.80
2024-02-26T13:08:00.690Z,3.50
2024-02-26T13:10:28.008Z,4.03
2024-02-26T13:12:54.936Z,4.13
2024-02-26T13:15:23.173Z,4.40
2024-02-26T13:17:51.699Z,3.13
2024-02-26T13:20:31.547Z,3.47
2024-02-26T13:23:07.346Z,2.80
2024-02-26T13:25:36.210Z,3.53
2024-02-26T13:28:09.412Z,3.90
2024-02-26T13:30:37.068Z,2.90
2024-02-26T13:33:12.387Z,3.53
2024-02-26T13:35:40.471Z,3.10
2024-02-26T13:38:07.646Z,3.43
2024-02-26T13:40:35.523Z,2.87
2024-02-26T13:43:02.570Z,3.67
2024-02-26T13:45:32.187Z,3.37
2024-02-26T13:48:07.116Z,3.90
2024-02-26T13:50:34.741Z,2.40
2024-02-26T13:53:01.886Z,2.10
2024-02-26T13:55:31.143Z,3.00
2024-02-26T13:57:58.915Z,2.93
2024-02-26T14:00:26.471Z,2.70
2024-02-26T14:02:53.612Z,3.03
2024-02-26T14:05:20.636Z,2.70
2024-02-26T14:07:50.521Z,2.40
2024-02-26T14:10:19.123Z,2.60
2024-02-26T14:12:46.136Z,2.80
2024-02-26T14:15:13.281Z,2.80
2024-02-26T14:17:40.515Z,3.07
2024-02-26T14:20:10.206Z,2.20
2024-02-26T14:22:37.399Z,2.67
2024-02-26T14:25:04.533Z,3.10
2024-02-26T14:27:31.675Z,3.30
2024-02-26T14:29:58.827Z,2.50
2024-02-26T14:32:26.240Z,2.50
2024-02-26T14:34:53.351Z,2.00
2024-02-26T14:37:20.442Z,2.67
2024-02-26T14:39:48.931Z,2.80
2024-02-26T14:42:19.096Z,3.30
2024-02-26T14:44:48.708Z,3.00
2024-02-26T14:47:15.963Z,3.00
2024-02-26T14:49:43.024Z,3.20
2024-02-26T14:52:10.318Z,3.07
2024-02-26T14:54:40.627Z,3.17
2024-02-26T14:57:08.810Z,3.30
2024-02-26T14:59:37.918Z,3.20
2024-02-26T15:02:05.144Z,2.80
2024-02-26T15:04:32.387Z,2.80
2024-02-26T15:06:59.394Z,3.20
2024-02-26T15:09:26.503Z,2.57
2024-02-26T15:11:53.489Z,2.60
2024-02-26T15:14:20.331Z,2.67
2024-02-26T15:16:47.276Z,2.73
2024-02-26T15:19:17.509Z,2.43
2024-02-26T15:21:45.967Z,2.80
2024-02-26T15:24:13.078Z,2.40
2024-02-26T15:26:43.451Z,2.47
2024-02-26T15:29:10.316Z,3.70
2024-02-26T15:31:38.263Z,3.60
2024-02-26T15:34:05.422Z,4.07
2024-02-26T15:36:32.552Z,3.17
2024-02-26T15:38:59.514Z,3.27
2024-02-26T15:41:26.571Z,3.57
2024-02-26T15:43:53.521Z,2.80
2024-02-26T15:46:20.570Z,3.30
2024-02-26T15:48:47.839Z,3.20
2024-02-26T15:51:28.045Z,3.13
2024-02-26T15:53:55.650Z,3.03
2024-02-26T15:56:25.692Z,3.40
2024-02-26T15:58:53.800Z,3.13
2024-02-26T16:01:24.670Z,2.80
2024-02-26T16:03:55.161Z,2.90
2024-02-26T16:06:34.468Z,2.40
2024-02-26T16:09:01.886Z,2.77
2024-02-26T16:11:29.138Z,4.30
2024-02-26T16:14:13.042Z,6.87
2024-02-26T16:16:47.527Z,8.07
2024-02-26T16:19:19.673Z,7.77
2024-02-26T16:21:47.873Z,8.10
2024-02-26T16:24:14.972Z,8.57
2024-02-26T16:26:41.923Z,8.53
2024-02-26T16:29:09.103Z,8.33
2024-02-26T16:31:35.994Z,6.47
2024-02-26T16:34:03.402Z,5.93
2024-02-26T16:36:30.597Z,5.90
2024-02-26T16:38:58.396Z,4.73
2024-02-26T16:41:25.631Z,4.90
2024-02-26T16:43:56.066Z,4.80
2024-02-26T16:46:23.160Z,4.80
2024-02-26T16:48:52.425Z,4.00
2024-02-26T16:51:23.074Z,4.10
2024-02-26T16:53:50.021Z,3.60
2024-02-26T16:56:17.496Z,3.77
2024-02-26T16:58:44.477Z,3.67
2024-02-26T17:01:11.508Z,3.70
2024-02-26T17:03:41.499Z,4.50
2024-02-26T17:06:09.020Z,5.77
2024-02-26T17:08:37.206Z,6.47
2024-02-26T17:11:05.662Z,7.90
2024-02-26T17:13:32.759Z,7.80
2024-02-26T17:15:59.895Z,5.63
2024-02-26T17:18:26.790Z,5.90
2024-02-26T17:20:53.913Z,6.27
2024-02-26T17:23:21.068Z,5.10
2024-02-26T17:25:48.346Z,5.73
2024-02-26T17:28:15.380Z,4.77
2024-02-26T17:30:42.426Z,4.53
2024-02-26T17:33:09.450Z,4.50
2024-02-26T17:35:36.447Z,4.57
2024-02-26T17:38:03.420Z,4.40
2024-02-26T17:40:31.509Z,5.67
2024-02-26T17:42:59.980Z,6.30
2024-02-26T17:45:27.654Z,5.27
2024-02-26T17:47:54.825Z,5.23
2024-02-26T17:50:23.866Z,5.43
2024-02-26T17:52:54.034Z,5.73
2024-02-26T17:55:21.902Z,4.97
2024-02-26T17:57:48.785Z,5.60
2024-02-26T18:00:16.192Z,4.47
2024-02-26T18:02:43.718Z,4.47
2024-02-26T18:05:12.353Z,5.63
2024-02-26T18:07:39.425Z,4.77
2024-02-26T18:10:10.307Z,4.37
2024-02-26T18:12:37.815Z,3.83
2024-02-26T18:15:06.005Z,3.80
2024-02-26T18:17:33.270Z,4.40
2024-02-26T18:20:01.472Z,3.90
2024-02-26T18:22:28.308Z,4.50
2024-02-26T18:24:55.738Z,4.00
2024-02-26T18:27:22.895Z,4.60
2024-02-26T18:29:49.933Z,5.07
2024-02-26T18:32:17.134Z,4.60
2024-02-26T18:34:44.865Z,4.47
2024-02-26T18:37:12.338Z,5.00
2024-02-26T18:39:41.264Z,4.27
2024-02-26T18:42:08.878Z,3.93
2024-02-26T18:44:35.802Z,4.23
2024-02-26T18:47:02.922Z,4.20
2024-02-26T18:49:33.489Z,4.90
2024-02-26T18:52:00.653Z,4.43
2024-02-26T18:54:27.683Z,4.83
2024-02-26T18:56:54.760Z,4.67
2024-02-26T18:59:21.825Z,5.30
2024-02-26T19:01:48.829Z,5.00
2024-02-26T19:04:15.850Z,5.07
2024-02-26T19:06:45.677Z,4.37
2024-02-26T19:09:13.021Z,5.13
2024-02-26T19:11:39.981Z,4.17
2024-02-26T19:14:08.622Z,3.97
2024-02-26T19:16:43.636Z,4.20
2024-02-26T19:19:10.726Z,4.53
2024-02-26T19:21:38.118Z,4.60
2024-02-26T19:24:07.740Z,3.83
2024-02-26T19:26:35.040Z,5.20
2024-02-26T19:29:06.142Z,4.13
2024-02-26T19:31:35.333Z,4.70
2024-02-26T19:34:02.591Z,5.20
2024-02-26T19:36:29.776Z,4.47
2024-02-26T19:38:56.915Z,5.03
2024-02-26T19:41:23.858Z,7.57
2024-02-26T19:43:50.791Z,6.77
2024-02-26T19:46:18.265Z,6.60
2024-02-26T19:48:45.424Z,4.20
2024-02-26T19:51:19.564Z,4.60
2024-02-26T19:53:47.180Z,3.90
2024-02-26T19:56:17.132Z,3.83
2024-02-26T19:58:44.615Z,3.50
2024-02-26T20:01:12.115Z,3.40
2024-02-26T20:03:41.470Z,4.00
2024-02-26T20:06:08.887Z,3.93
2024-02-26T20:08:35.892Z,4.47
2024-02-26T20:11:03.636Z,3.77
2024-02-26T20:13:31.900Z,3.90
2024-02-26T20:15:58.838Z,3.83
2024-02-26T20:18:26.110Z,4.07
2024-02-26T20:20:53.082Z,4.33
2024-02-26T20:23:20.110Z,3.40
2024-02-26T20:25:47.071Z,3.97
2024-02-26T20:28:14.056Z,4.03
2024-02-26T20:30:41.000Z,3.47
2024-02-26T20:33:07.986Z,3.73
2024-02-26T20:35:34.904Z,3.33
2024-02-26T20:38:01.802Z,4.40
2024-02-26T20:40:28.838Z,4.87
2024-02-26T20:42:55.984Z,5.37
2024-02-26T20:45:25.212Z,5.57
2024-02-26T20:47:54.578Z,5.27
2024-02-26T20:50:21.518Z,5.13
2024-02-26T20:52:49.313Z,5.27
2024-02-26T20:55:16.283Z,5.03
2024-02-26T20:57:43.928Z,4.57
2024-02-26T21:00:11.793Z,4.63
2024-02-26T21:02:40.367Z,4.70
2024-02-26T21:05:10.432Z,5.40
2024-02-26T21:07:37.770Z,5.37
2024-02-26T21:10:05.439Z,5.60
2024-02-26T21:12:33.727Z,5.00
2024-02-26T21:15:00.810Z,5.70
2024-02-26T21:17:28.790Z,6.50
2024-02-26T21:19:56.635Z,6.43
2024-02-26T21:22:23.627Z,6.17
2024-02-26T21:24:50.514Z,6.07
2024-02-26T21:27:17.487Z,5.87
2024-02-26T21:29:45.414Z,5.90
2024-02-26T21:32:12.303Z,5.33
2024-02-26T21:34:42.466Z,7.50
2024-02-26T21:37:10.114Z,7.27
2024-02-26T21:39:38.540Z,7.50
2024-02-26T21:42:05.868Z,7.93
2024-02-26T21:44:33.975Z,7.70
2024-02-26T21:47:02.649Z,7.70
2024-02-26T21:49:30.384Z,8.37
2024-02-26T21:51:58.548Z,8.03
2024-02-26T21:54:27.288Z,7.67
2024-02-26T21:56:54.507Z,7.77
2024-02-26T21:59:21.465Z,7.60
2024-02-26T22:01:48.380Z,9.47
2024-02-26T22:04:15.401Z,9.10
2024-02-26T22:06:45.707Z,8.03
2024-02-26T22:09:13.040Z,9.10
2024-02-26T22:11:40.045Z,8.23
2024-02-26T22:14:07.328Z,7.30
2024-02-26T22:16:34.299Z,8.57
2024-02-26T22:19:06.700Z,8.27
2024-02-26T22:21:36.886Z,8.30
2024-02-26T22:24:04.406Z,8.53
2024-02-26T22:26:31.390Z,8.50
2024-02-26T22:28:58.252Z,8.23
2024-02-26T22:31:26.663Z,7.57
2024-02-26T22:33:53.804Z,7.63
2024-02-26T22:36:21.637Z,9.40
2024-02-26T22:38:48.734Z,11.07
2024-02-26T22:41:16.777Z,10.23
2024-02-26T22:43:43.598Z,11.50
2024-02-26T22:46:10.436Z,11.63
2024-02-26T22:48:37.457Z,10.53
2024-02-26T22:51:05.208Z,10.90
2024-02-26T22:53:32.057Z,11.90
2024-02-26T22:55:59.006Z,11.13
2024-02-26T22:58:25.939Z,12.30
2024-02-26T23:00:53.090Z,11.80
2024-02-26T23:03:20.361Z,13.17
2024-02-26T23:05:48.356Z,12.03
2024-02-26T23:08:18.404Z,13.17
2024-02-26T23:10:45.691Z,12.53
2024-02-26T23:13:12.525Z,11.93
2024-02-26T23:15:39.718Z,12.67
2024-02-26T23:18:06.701Z,12.80
2024-02-26T23:20:34.619Z,13.30
2024-02-26T23:23:04.666Z,12.37
2024-02-26T23:25:31.815Z,12.87
2024-02-26T23:27:58.660Z,12.70
2024-02-26T23:30:25.878Z,14.00
2024-02-26T23:32:52.995Z,13.73
2024-02-26T23:35:20.045Z,14.30
2024-02-26T23:37:47.144Z,11.60
2024-02-26T23:40:14.140Z,12.37
2024-02-26T23:42:41.144Z,12.40
2024-02-26T23:45:08.858Z,11.97
2024-02-26T23:47:35.950Z,12.00
2024-02-26T23:50:03.556Z,11.70
2024-02-26T23:52:30.567Z,13.43
2024-02-26T23:54:57.505Z,12.57
2024-02-26T23:57:24.477Z,12.70
2024-02-26T23:59:51.440Z,14.23
